Terminal Aerodrome Forecast
Issued by NWS

Home | Current Version | Previous Version | Text Only | Print | Product List | Glossary On
Versions: 1 2 3 4 5 6 7 8 9 10 11 12 13 14 15
090
FTUS43 KGRR 010540
TAFMKG
TAF
KMKG 010540Z 0106/0206 11010KT P6SM VCSH BKN120
     FM011700 18007KT P6SM VCTS BKN060CB
     FM020000 23006KT P6SM BKN250=

USA.gov is the U.S. government's official web portal to all federal, state and local government web resources and services.